Flight Track Log - Related Links

Times and Time Zones

All times are in EDT time to prevent confusion due to time zone crossing. See the AAL2360 flight status page for this flight to view local times or setup timezone preferences in your user account.

Time Position Orientation Groundspeed Altitude Reporting Facility
EDT Latitude Longitude Course Direction KTS MPH feet Rate Location/Type
Tue 03:37:10 PM 32.8833 -97.0333 357° North 160 184 1,400  Level Dallas / Fort Worth TRACON
Tue 03:37:52 PM 32.8500 -97.0333 180° South 186 214 2,700 2,118 Climbing Dallas / Fort Worth TRACON
Tue 03:38:52 PM 32.8000 -97.0000 151° Southeast 214 246 5,000 2,150 Climbing Dallas / Fort Worth TRACON
Tue 03:39:00 PM 32.8377 -96.8025 10° North  Level FlightAware Approximate
Tue 03:39:52 PM 32.7667 -96.9333 121° Southeast 248 285 7,000  Level Dallas / Fort Worth TRACON
Tue 03:40:00 PM 32.9517 -96.8000 North  Level FlightAware Approximate
Tue 03:40:58 PM 32.7833 -96.8333 79° East 288 331 10,000  Level Dallas / Fort Worth TRACON
Tue 03:41:00 PM 33.0659 -96.8000 North  Level FlightAware Approximate
Tue 03:41:58 PM 32.8500 -96.8000 23° Northeast 335 386 11,500  Level Dallas / Fort Worth TRACON
Tue 03:42:00 PM 33.1798 -96.8081 357° North  Level FlightAware Approximate
Tue 03:42:58 PM 32.9667 -96.8000 360° North 402 463 12,900  Level Dallas / Fort Worth TRACON
Tue 03:44:30 PM 33.1242 -96.8131 356° North 464 534 16,200 2,329 Climbing Fort Worth Center
Tue 03:45:30 PM 33.2600 -96.8197 358° North 445 512 18,800 2,250 Climbing Fort Worth Center
Tue 03:46:30 PM 33.3706 -96.8042 North 440 506 20,700 1,950 Climbing Fort Worth Center
Tue 03:47:30 PM 33.4975 -96.7383 23° Northeast 447 514 22,700 1,850 Climbing Fort Worth Center
Tue 03:48:30 PM 33.6139 -96.6753 24° Northeast 454 522 24,400 1,884 Climbing Fort Worth Center
Tue 03:49:31 PM 33.7306 -96.6092 25° Northeast 459 528 26,500 1,900 Climbing Fort Worth Center
Tue 03:50:30 PM 33.8428 -96.5506 23° Northeast 459 528 28,200 1,613 Climbing Fort Worth Center
Tue 03:51:30 PM 33.9592 -96.4844 25° Northeast 454 522 29,700 1,488 Climbing Fort Worth Center
Tue 03:52:31 PM 34.0733 -96.4206 25° Northeast 454 522 31,200 1,350 Climbing Fort Worth Center
Tue 03:53:30 PM 34.1772 -96.3367 34° Northeast 447 514 32,400 908 Climbing Fort Worth Center
Tue 03:54:30 PM 34.2806 -96.2497 35° Northeast 447 514 33,000 298 Climbing Fort Worth Center
Tue 03:55:31 PM 34.3861 -96.1628 34° Northeast 447 514 33,000  Level Fort Worth Center
Tue 03:56:30 PM 34.4897 -96.0781 34° Northeast 447 514 33,000  Level Fort Worth Center
Tue 03:57:30 PM 34.5950 -95.9908 34° Northeast 452 520 33,000  Level Fort Worth Center
Tue 03:58:30 PM 34.7025 -95.9031 34° Northeast 457 526 33,000  Level Fort Worth Center
Tue 03:59:30 PM 34.8039 -95.8178 35° Northeast 457 526 33,000  Level Fort Worth Center
Tue 04:00:31 PM 34.8986 -95.7350 36° Northeast 457 526 33,000  Level Fort Worth Center
Tue 04:01:31 PM 35.0017 -95.6444 36° Northeast 462 532 33,000  Level Fort Worth Center
Tue 04:02:30 PM 35.1006 -95.5508 38° Northeast 462 532 33,000  Level Fort Worth Center
Tue 04:04:13 PM 35.2778 -95.3781 38° Northeast 451 519 33,000  Level Kansas City Center
Tue 04:04:57 PM 35.3533 -95.3111 36° Northeast 458 527 33,000  Level Memphis Center
Tue 04:05:57 PM 35.4531 -95.2150 38° Northeast 450 518 33,000  Level Memphis Center
Tue 04:06:57 PM 35.5506 -95.1211 38° Northeast 450 518 33,000  Level Memphis Center
Tue 04:07:57 PM 35.6478 -95.0269 38° Northeast 450 518 33,000  Level Memphis Center
Tue 04:08:57 PM 35.7475 -94.9303 38° Northeast 450 518 33,000  Level Memphis Center
Tue 04:09:57 PM 35.8447 -94.8358 38° Northeast 450 518 33,000  Level Memphis Center
Tue 04:10:57 PM 35.9439 -94.7414 38° Northeast 445 512 33,000  Level Memphis Center
Tue 04:11:57 PM 36.0369 -94.6461 40° Northeast 445 512 33,000  Level Memphis Center
Tue 04:13:31 PM 36.1756 -94.5128 38° Northeast 439 505 33,000  Level Kansas City Center
Tue 04:14:33 PM 36.2711 -94.4183 39° Northeast 439 505 33,000  Level Kansas City Center
Tue 04:15:35 PM 36.3853 -94.3072 38° Northeast 437 503 33,000  Level Kansas City Center
Tue 04:16:37 PM 36.4800 -94.2114 39° Northeast 438 504 33,000  Level Kansas City Center
Tue 04:17:39 PM 36.5803 -94.1164 37° Northeast 443 510 33,000  Level Kansas City Center
Tue 04:18:41 PM 36.6739 -94.0219 39° Northeast 435 501 33,000  Level Kansas City Center
Tue 04:19:43 PM 36.7692 -93.9264 39° Northeast 438 504 33,000  Level Kansas City Center
Tue 04:20:45 PM 36.8644 -93.8308 39° Northeast 439 505 33,000  Level Kansas City Center
Tue 04:21:47 PM 36.9656 -93.7244 40° Northeast 433 498 33,000  Level Kansas City Center
Tue 04:22:49 PM 37.0619 -93.6297 38° Northeast 436 502 33,000  Level Kansas City Center
Tue 04:23:51 PM 37.1736 -93.5747 21° North 437 503 33,000  Level Kansas City Center
Tue 04:24:53 PM 37.3178 -93.5947 354° North 432 497 33,000  Level Kansas City Center
Tue 04:25:55 PM 37.4394 -93.6142 353° North 435 501 33,000  Level Kansas City Center
Tue 04:26:57 PM 37.5608 -93.6339 353° North 437 503 33,000  Level Kansas City Center
Tue 04:27:59 PM 37.6797 -93.6078 10° North 432 497 33,000  Level Kansas City Center
Tue 04:29:02 PM 37.7972 -93.5744 13° North 432 497 33,000  Level Kansas City Center
Tue 04:30:04 PM 37.9147 -93.5386 14° North 431 496 33,000  Level Kansas City Center
Tue 04:31:06 PM 38.0069 -93.4442 39° Northeast 430 495 33,000  Level Kansas City Center
Tue 04:32:08 PM 38.1056 -93.3106 47° Northeast 430 495 33,000  Level Kansas City Center
Tue 04:33:10 PM 38.1889 -93.1978 47° Northeast 434 499 33,000  Level Kansas City Center
Tue 04:34:12 PM 38.2714 -93.0861 47° Northeast 432 497 33,000  Level Kansas City Center
Tue 04:35:14 PM 38.3578 -92.9706 46° Northeast 439 505 33,000  Level Kansas City Center
Tue 04:36:16 PM 38.4400 -92.8569 47° Northeast 436 502 33,000  Level Kansas City Center
Tue 04:37:18 PM 38.5225 -92.7450 47° Northeast 432 497 33,000  Level Kansas City Center
Tue 04:38:20 PM 38.6061 -92.6314 47° Northeast 432 497 33,000  Level Kansas City Center
Tue 04:39:22 PM 38.6892 -92.5175 47° Northeast 434 499 33,000  Level Kansas City Center
Tue 04:40:24 PM 38.7883 -92.3783 48° Northeast 435 501 33,000  Level Kansas City Center
Tue 04:41:26 PM 38.8711 -92.2628 47° Northeast 437 503 33,000  Level Kansas City Center
Tue 04:42:28 PM 38.9542 -92.1478 47° Northeast 437 503 33,000  Level Kansas City Center
Tue 04:43:30 PM 39.0383 -92.0325 47° Northeast 440 506 33,000  Level Kansas City Center
Tue 04:44:32 PM 39.1211 -91.9125 48° Northeast 442 509 33,000  Level Kansas City Center
Tue 04:45:34 PM 39.2061 -91.7953 47° Northeast 445 512 33,000  Level Kansas City Center
Tue 04:46:36 PM 39.3000 -91.6617 48° Northeast 449 517 33,000  Level Kansas City Center
Tue 04:47:38 PM 39.3844 -91.5417 48° Northeast 450 518 33,000  Level Kansas City Center
Tue 04:48:40 PM 39.4681 -91.4225 48° Northeast 449 517 33,000  Level Kansas City Center
Tue 04:49:42 PM 39.5519 -91.3039 47° Northeast 447 514 33,000  Level Kansas City Center
Tue 04:50:44 PM 39.6361 -91.1811 48° Northeast 451 519 33,000  Level Kansas City Center
Tue 04:51:47 PM 39.7222 -91.0631 46° Northeast 451 519 33,000  Level Kansas City Center
Tue 04:52:49 PM 39.8328 -90.9558 37° Northeast 447 514 33,000  Level Kansas City Center
Tue 04:53:51 PM 39.9306 -90.8564 38° Northeast 445 512 33,000  Level Kansas City Center
Tue 04:54:53 PM 40.0278 -90.7569 38° Northeast 445 512 33,000  Level Kansas City Center
Tue 04:55:55 PM 40.1278 -90.6556 38° Northeast 450 518 33,000  Level Kansas City Center
Tue 04:56:31 PM 40.2067 -90.5742 38° Northeast 450 518 33,000  Level Chicago Center
Tue 04:57:33 PM 40.3067 -90.4728 38° Northeast 452 520 33,000  Level Chicago Center
Tue 04:58:35 PM 40.4058 -90.3706 38° Northeast 453 521 33,000  Level Chicago Center
Tue 04:59:37 PM 40.5064 -90.2678 38° Northeast 454 522 33,000  Level Chicago Center
Tue 05:00:40 PM 40.6225 -90.1492 38° Northeast 454 522 33,000  Level Chicago Center
Tue 05:01:42 PM 40.7225 -90.0464 38° Northeast 457 526 33,000  Level Chicago Center
Tue 05:02:44 PM 40.8236 -89.9428 38° Northeast 460 529 33,000 -624 Level Chicago Center
Tue 05:03:47 PM 40.9211 -89.8378 39° Northeast 455 524 31,700 -2,592 Descending Chicago Center
Tue 05:04:49 PM 41.0353 -89.7183 38° Northeast 465 535 27,600 -3,484 Descending Chicago Center
Tue 05:05:51 PM 41.1394 -89.6086 38° Northeast 474 545 24,500 -2,419 Descending Chicago Center
Tue 05:06:53 PM 41.2103 -89.4683 56° Northeast 467 537 22,600 -2,032 Descending Chicago Center
Tue 05:07:55 PM 41.2647 -89.3283 63° Northeast 437 503 20,300 -2,419 Descending Chicago Center
Tue 05:08:57 PM 41.3222 -89.1892 61° Northeast 419 482 17,600 -2,516 Descending Chicago Center
Tue 05:09:59 PM 41.3736 -89.0556 63° Northeast 413 475 15,100 -2,419 Descending Chicago Center
Tue 05:11:01 PM 41.4264 -88.9231 62° Northeast 408 470 12,600 -1,984 Descending Chicago Center
Tue 05:12:03 PM 41.4875 -88.7686 62° Northeast 397 457 11,000 -774 Descending Chicago Center
Tue 05:13:05 PM 41.5381 -88.6400 62° Northeast 396 456 11,000  Level Chicago Center
Tue 05:14:07 PM 41.5881 -88.5128 62° Northeast 391 450 11,000  Level Chicago Center
Tue 05:15:10 PM 41.6503 -88.3919 55° Northeast 400 460 11,000 -432 Level Chicago Center
Tue 05:16:12 PM 41.7156 -88.2800 52° Northeast 385 443 10,100 -919 Descending Chicago Center
Tue 05:17:14 PM 41.7733 -88.1822 52° Northeast 342 394 9,100 -1,161 Descending Chicago Center
Tue 05:18:16 PM 41.8406 -88.0683 52° Northeast 327 376 7,700 -1,154 Descending Chicago Center
Tue 05:18:58 PM 41.9000 -88.0500 13° North 302 348 7,100 -408 Descending Chicago TRACON
Tue 05:19:59 PM 41.9667 -88.0333 11° North 232 267 7,000 -347 Descending Chicago TRACON
Tue 05:20:59 PM 42.0000 -88.0833 312° West 207 238 6,400 -1,000 Descending Chicago TRACON
Tue 05:21:59 PM 42.0500 -88.1333 323° Northwest 201 231 5,000 -1,129 Descending Chicago TRACON
Tue 05:22:24 PM 42.0619 -88.1425 330° Northwest 207 238 4,800 -966 Descending Chicago Center
Tue 05:23:26 PM 42.1200 -88.1697 341° North 217 250 3,600 -1,161 Descending Chicago Center

Login

Don't have an account? Register now (free) for customized features, flight alerts, and more!